sensor_id;sensor_type;location;lat;lon;timestamp;P1;durP1;ratioP1;P2;durP2;ratioP2
33690;SDS011;20026;50.058;18.428;2023-04-25T00:01:20;48.17;;;35.20;;
33690;SDS011;20026;50.058;18.428;2023-04-25T00:03:49;21.58;;;17.42;;
33690;SDS011;20026;50.058;18.428;2023-04-25T00:06:15;17.40;;;13.77;;
33690;SDS011;20026;50.058;18.428;2023-04-25T00:08:43;18.00;;;13.32;;
33690;SDS011;20026;50.058;18.428;2023-04-25T00:11:09;15.05;;;12.48;;
33690;SDS011;20026;50.058;18.428;2023-04-25T00:13:35;13.90;;;12.07;;
33690;SDS011;20026;50.058;18.428;2023-04-25T00:16:01;13.98;;;11.80;;
33690;SDS011;20026;50.058;18.428;2023-04-25T00:18:29;13.13;;;10.90;;
33690;SDS011;20026;50.058;18.428;2023-04-25T00:20:56;10.27;;;8.75;;
33690;SDS011;20026;50.058;18.428;2023-04-25T00:23:22;13.10;;;10.50;;
33690;SDS011;20026;50.058;18.428;2023-04-25T00:25:49;14.25;;;8.68;;
33690;SDS011;20026;50.058;18.428;2023-04-25T00:28:16;10.20;;;8.27;;
33690;SDS011;20026;50.058;18.428;2023-04-25T00:30:42;9.40;;;7.32;;
33690;SDS011;20026;50.058;18.428;2023-04-25T00:33:09;8.95;;;7.13;;
33690;SDS011;20026;50.058;18.428;2023-04-25T00:35:36;10.30;;;7.30;;
33690;SDS011;20026;50.058;18.428;2023-04-25T00:38:02;10.68;;;6.85;;
33690;SDS011;20026;50.058;18.428;2023-04-25T00:40:28;9.10;;;6.63;;
33690;SDS011;20026;50.058;18.428;2023-04-25T00:42:55;6.45;;;5.00;;
33690;SDS011;20026;50.058;18.428;2023-04-25T00:45:21;6.53;;;5.03;;
33690;SDS011;20026;50.058;18.428;2023-04-25T00:47:50;7.00;;;4.95;;
33690;SDS011;20026;50.058;18.428;2023-04-25T00:50:17;6.05;;;4.50;;
33690;SDS011;20026;50.058;18.428;2023-04-25T00:52:43;6.53;;;4.68;;
33690;SDS011;20026;50.058;18.428;2023-04-25T00:55:10;4.47;;;3.95;;
33690;SDS011;20026;50.058;18.428;2023-04-25T00:57:38;7.45;;;4.68;;
33690;SDS011;20026;50.058;18.428;2023-04-25T01:00:05;6.63;;;4.55;;
33690;SDS011;20026;50.058;18.428;2023-04-25T01:02:32;5.30;;;4.00;;
33690;SDS011;20026;50.058;18.428;2023-04-25T01:04:58;4.57;;;3.85;;
33690;SDS011;20026;50.058;18.428;2023-04-25T01:07:25;6.90;;;4.57;;
33690;SDS011;20026;50.058;18.428;2023-04-25T01:09:51;8.70;;;5.25;;
33690;SDS011;20026;50.058;18.428;2023-04-25T01:12:17;5.85;;;4.03;;
33690;SDS011;20026;50.058;18.428;2023-04-25T01:14:44;10.18;;;7.72;;
33690;SDS011;20026;50.058;18.428;2023-04-25T01:17:10;6.50;;;3.90;;
33690;SDS011;20026;50.058;18.428;2023-04-25T01:19:37;8.85;;;4.60;;
33690;SDS011;20026;50.058;18.428;2023-04-25T01:22:04;5.60;;;3.75;;
33690;SDS011;20026;50.058;18.428;2023-04-25T01:24:31;4.97;;;3.72;;
33690;SDS011;20026;50.058;18.428;2023-04-25T01:26:58;7.28;;;4.82;;
33690;SDS011;20026;50.058;18.428;2023-04-25T01:29:27;8.82;;;4.88;;
33690;SDS011;20026;50.058;18.428;2023-04-25T01:31:54;6.28;;;4.50;;
33690;SDS011;20026;50.058;18.428;2023-04-25T01:34:20;8.38;;;5.18;;
33690;SDS011;20026;50.058;18.428;2023-04-25T01:36:48;6.72;;;4.35;;
33690;SDS011;20026;50.058;18.428;2023-04-25T01:39:15;5.00;;;3.58;;
33690;SDS011;20026;50.058;18.428;2023-04-25T01:41:42;9.68;;;3.17;;
33690;SDS011;20026;50.058;18.428;2023-04-25T01:44:09;4.15;;;2.85;;
33690;SDS011;20026;50.058;18.428;2023-04-25T01:46:35;3.47;;;2.60;;
33690;SDS011;20026;50.058;18.428;2023-04-25T01:49:01;3.47;;;2.10;;
33690;SDS011;20026;50.058;18.428;2023-04-25T01:51:28;3.83;;;2.53;;
33690;SDS011;20026;50.058;18.428;2023-04-25T01:53:55;5.13;;;2.70;;
33690;SDS011;20026;50.058;18.428;2023-04-25T01:56:21;3.05;;;2.28;;
33690;SDS011;20026;50.058;18.428;2023-04-25T01:58:48;3.25;;;2.20;;
33690;SDS011;20026;50.058;18.428;2023-04-25T02:01:14;2.53;;;2.20;;
33690;SDS011;20026;50.058;18.428;2023-04-25T02:03:40;4.22;;;1.98;;
33690;SDS011;20026;50.058;18.428;2023-04-25T02:06:07;3.85;;;2.20;;
33690;SDS011;20026;50.058;18.428;2023-04-25T02:08:33;2.35;;;1.80;;
33690;SDS011;20026;50.058;18.428;2023-04-25T02:10:59;3.17;;;2.17;;
33690;SDS011;20026;50.058;18.428;2023-04-25T02:13:26;3.72;;;2.65;;
33690;SDS011;20026;50.058;18.428;2023-04-25T02:15:52;3.05;;;2.25;;
33690;SDS011;20026;50.058;18.428;2023-04-25T02:18:18;2.63;;;1.95;;
33690;SDS011;20026;50.058;18.428;2023-04-25T02:20:46;2.90;;;1.70;;
33690;SDS011;20026;50.058;18.428;2023-04-25T02:23:12;4.60;;;2.10;;
33690;SDS011;20026;50.058;18.428;2023-04-25T02:25:40;3.15;;;2.25;;
33690;SDS011;20026;50.058;18.428;2023-04-25T02:28:06;3.55;;;2.17;;
33690;SDS011;20026;50.058;18.428;2023-04-25T02:30:32;5.15;;;2.47;;
33690;SDS011;20026;50.058;18.428;2023-04-25T02:32:59;2.38;;;2.05;;
33690;SDS011;20026;50.058;18.428;2023-04-25T02:35:25;3.80;;;2.25;;
33690;SDS011;20026;50.058;18.428;2023-04-25T02:37:51;4.95;;;3.40;;
33690;SDS011;20026;50.058;18.428;2023-04-25T02:40:17;12.38;;;6.43;;
33690;SDS011;20026;50.058;18.428;2023-04-25T02:42:43;7.70;;;4.07;;
33690;SDS011;20026;50.058;18.428;2023-04-25T02:45:11;11.55;;;6.20;;
33690;SDS011;20026;50.058;18.428;2023-04-25T02:47:37;11.65;;;7.28;;
33690;SDS011;20026;50.058;18.428;2023-04-25T02:50:03;9.35;;;6.43;;
33690;SDS011;20026;50.058;18.428;2023-04-25T02:52:31;15.95;;;7.97;;
33690;SDS011;20026;50.058;18.428;2023-04-25T02:54:57;15.18;;;8.30;;
33690;SDS011;20026;50.058;18.428;2023-04-25T02:57:24;15.27;;;8.48;;
33690;SDS011;20026;50.058;18.428;2023-04-25T02:59:50;9.50;;;5.50;;
33690;SDS011;20026;50.058;18.428;2023-04-25T03:02:17;13.60;;;6.90;;
33690;SDS011;20026;50.058;18.428;2023-04-25T03:04:43;8.30;;;5.18;;
33690;SDS011;20026;50.058;18.428;2023-04-25T03:07:09;10.05;;;5.30;;
33690;SDS011;20026;50.058;18.428;2023-04-25T03:09:36;9.20;;;5.03;;
33690;SDS011;20026;50.058;18.428;2023-04-25T03:12:02;5.03;;;3.95;;
33690;SDS011;20026;50.058;18.428;2023-04-25T03:14:28;5.47;;;3.80;;
33690;SDS011;20026;50.058;18.428;2023-04-25T03:16:55;6.45;;;3.95;;
33690;SDS011;20026;50.058;18.428;2023-04-25T03:19:21;9.32;;;5.30;;
33690;SDS011;20026;50.058;18.428;2023-04-25T03:21:48;6.00;;;4.78;;
33690;SDS011;20026;50.058;18.428;2023-04-25T03:24:14;8.00;;;4.75;;
33690;SDS011;20026;50.058;18.428;2023-04-25T03:26:41;8.27;;;6.03;;
33690;SDS011;20026;50.058;18.428;2023-04-25T03:29:07;12.52;;;7.57;;
33690;SDS011;20026;50.058;18.428;2023-04-25T03:31:33;11.07;;;7.15;;
33690;SDS011;20026;50.058;18.428;2023-04-25T03:33:59;11.43;;;7.07;;
33690;SDS011;20026;50.058;18.428;2023-04-25T03:36:26;11.75;;;8.05;;
33690;SDS011;20026;50.058;18.428;2023-04-25T03:38:52;15.18;;;10.00;;
33690;SDS011;20026;50.058;18.428;2023-04-25T03:41:18;16.40;;;10.48;;
33690;SDS011;20026;50.058;18.428;2023-04-25T03:43:45;13.85;;;9.02;;
33690;SDS011;20026;50.058;18.428;2023-04-25T03:46:11;9.38;;;6.97;;
33690;SDS011;20026;50.058;18.428;2023-04-25T03:48:37;12.75;;;7.18;;
33690;SDS011;20026;50.058;18.428;2023-04-25T03:51:04;12.15;;;6.45;;
33690;SDS011;20026;50.058;18.428;2023-04-25T03:53:30;10.68;;;6.10;;
33690;SDS011;20026;50.058;18.428;2023-04-25T03:55:56;11.43;;;6.35;;
33690;SDS011;20026;50.058;18.428;2023-04-25T03:58:23;11.82;;;6.35;;
33690;SDS011;20026;50.058;18.428;2023-04-25T04:00:51;12.10;;;7.65;;
33690;SDS011;20026;50.058;18.428;2023-04-25T04:03:18;11.13;;;7.40;;
33690;SDS011;20026;50.058;18.428;2023-04-25T04:05:44;11.48;;;7.35;;
33690;SDS011;20026;50.058;18.428;2023-04-25T04:08:11;13.30;;;9.10;;
33690;SDS011;20026;50.058;18.428;2023-04-25T04:10:37;10.30;;;7.28;;
33690;SDS011;20026;50.058;18.428;2023-04-25T04:13:04;20.60;;;9.50;;
33690;SDS011;20026;50.058;18.428;2023-04-25T04:15:30;22.15;;;11.77;;
33690;SDS011;20026;50.058;18.428;2023-04-25T04:17:57;18.30;;;9.85;;
33690;SDS011;20026;50.058;18.428;2023-04-25T04:20:27;10.20;;;6.95;;
33690;SDS011;20026;50.058;18.428;2023-04-25T04:22:54;12.07;;;7.80;;
33690;SDS011;20026;50.058;18.428;2023-04-25T04:25:20;11.35;;;6.65;;
33690;SDS011;20026;50.058;18.428;2023-04-25T04:27:46;11.35;;;7.72;;
33690;SDS011;20026;50.058;18.428;2023-04-25T04:30:13;12.98;;;8.30;;
33690;SDS011;20026;50.058;18.428;2023-04-25T04:32:39;12.85;;;8.50;;
33690;SDS011;20026;50.058;18.428;2023-04-25T04:35:06;12.95;;;9.10;;
33690;SDS011;20026;50.058;18.428;2023-04-25T04:37:34;11.80;;;7.20;;
33690;SDS011;20026;50.058;18.428;2023-04-25T04:40:01;12.18;;;7.22;;
33690;SDS011;20026;50.058;18.428;2023-04-25T04:42:30;9.80;;;6.50;;
33690;SDS011;20026;50.058;18.428;2023-04-25T04:44:56;9.25;;;6.00;;
33690;SDS011;20026;50.058;18.428;2023-04-25T04:47:23;12.07;;;6.78;;
33690;SDS011;20026;50.058;18.428;2023-04-25T04:49:50;13.32;;;7.25;;
33690;SDS011;20026;50.058;18.428;2023-04-25T04:52:17;8.35;;;4.97;;
33690;SDS011;20026;50.058;18.428;2023-04-25T04:54:43;9.43;;;5.85;;
33690;SDS011;20026;50.058;18.428;2023-04-25T04:57:09;11.32;;;5.75;;
33690;SDS011;20026;50.058;18.428;2023-04-25T04:59:36;9.32;;;5.53;;
33690;SDS011;20026;50.058;18.428;2023-04-25T05:02:02;12.10;;;6.70;;
33690;SDS011;20026;50.058;18.428;2023-04-25T05:04:29;9.70;;;6.10;;
33690;SDS011;20026;50.058;18.428;2023-04-25T05:06:55;8.23;;;5.43;;
33690;SDS011;20026;50.058;18.428;2023-04-25T05:09:21;12.23;;;7.70;;
33690;SDS011;20026;50.058;18.428;2023-04-25T05:11:51;10.85;;;6.90;;
33690;SDS011;20026;50.058;18.428;2023-04-25T05:14:17;14.20;;;7.32;;
33690;SDS011;20026;50.058;18.428;2023-04-25T05:16:44;10.13;;;6.43;;
33690;SDS011;20026;50.058;18.428;2023-04-25T05:19:13;8.95;;;6.40;;
33690;SDS011;20026;50.058;18.428;2023-04-25T05:21:40;7.82;;;5.55;;
33690;SDS011;20026;50.058;18.428;2023-04-25T05:24:08;9.80;;;6.28;;
33690;SDS011;20026;50.058;18.428;2023-04-25T05:26:34;7.60;;;5.47;;
33690;SDS011;20026;50.058;18.428;2023-04-25T05:29:00;7.93;;;5.75;;
33690;SDS011;20026;50.058;18.428;2023-04-25T05:31:27;9.27;;;6.18;;
33690;SDS011;20026;50.058;18.428;2023-04-25T05:33:53;11.13;;;6.30;;
33690;SDS011;20026;50.058;18.428;2023-04-25T05:36:19;8.13;;;5.60;;
33690;SDS011;20026;50.058;18.428;2023-04-25T05:38:45;11.15;;;5.95;;
33690;SDS011;20026;50.058;18.428;2023-04-25T05:41:12;9.57;;;6.15;;
33690;SDS011;20026;50.058;18.428;2023-04-25T05:43:38;8.10;;;5.90;;
33690;SDS011;20026;50.058;18.428;2023-04-25T05:46:10;12.70;;;6.88;;
33690;SDS011;20026;50.058;18.428;2023-04-25T05:48:37;9.73;;;6.53;;
33690;SDS011;20026;50.058;18.428;2023-04-25T05:51:03;8.55;;;5.60;;
33690;SDS011;20026;50.058;18.428;2023-04-25T05:53:29;8.25;;;4.78;;
33690;SDS011;20026;50.058;18.428;2023-04-25T05:55:55;6.85;;;4.93;;
33690;SDS011;20026;50.058;18.428;2023-04-25T05:58:22;5.97;;;5.03;;
33690;SDS011;20026;50.058;18.428;2023-04-25T06:00:48;7.38;;;5.30;;
33690;SDS011;20026;50.058;18.428;2023-04-25T06:03:15;9.00;;;6.10;;
33690;SDS011;20026;50.058;18.428;2023-04-25T06:05:41;13.25;;;6.40;;
33690;SDS011;20026;50.058;18.428;2023-04-25T06:08:08;8.90;;;5.80;;
33690;SDS011;20026;50.058;18.428;2023-04-25T06:10:35;11.80;;;5.97;;
33690;SDS011;20026;50.058;18.428;2023-04-25T06:13:01;8.32;;;5.82;;
33690;SDS011;20026;50.058;18.428;2023-04-25T06:15:28;7.25;;;5.30;;
33690;SDS011;20026;50.058;18.428;2023-04-25T06:17:55;8.85;;;5.80;;
33690;SDS011;20026;50.058;18.428;2023-04-25T06:20:21;6.35;;;4.95;;
33690;SDS011;20026;50.058;18.428;2023-04-25T06:22:49;8.35;;;5.43;;
33690;SDS011;20026;50.058;18.428;2023-04-25T06:25:16;8.13;;;5.68;;
33690;SDS011;20026;50.058;18.428;2023-04-25T06:27:43;9.57;;;5.18;;
33690;SDS011;20026;50.058;18.428;2023-04-25T06:30:13;6.30;;;4.65;;
33690;SDS011;20026;50.058;18.428;2023-04-25T06:32:40;7.43;;;4.38;;
33690;SDS011;20026;50.058;18.428;2023-04-25T06:35:06;8.38;;;4.10;;
33690;SDS011;20026;50.058;18.428;2023-04-25T06:37:33;6.03;;;4.35;;
33690;SDS011;20026;50.058;18.428;2023-04-25T06:39:59;6.25;;;4.07;;
33690;SDS011;20026;50.058;18.428;2023-04-25T06:42:26;6.30;;;4.57;;
33690;SDS011;20026;50.058;18.428;2023-04-25T06:44:52;8.77;;;5.13;;
33690;SDS011;20026;50.058;18.428;2023-04-25T06:47:18;8.27;;;5.03;;
33690;SDS011;20026;50.058;18.428;2023-04-25T06:49:45;10.30;;;4.88;;
33690;SDS011;20026;50.058;18.428;2023-04-25T06:52:11;11.52;;;5.85;;
33690;SDS011;20026;50.058;18.428;2023-04-25T06:54:37;14.65;;;8.15;;
33690;SDS011;20026;50.058;18.428;2023-04-25T06:57:04;11.02;;;6.30;;
33690;SDS011;20026;50.058;18.428;2023-04-25T06:59:30;8.20;;;4.65;;
33690;SDS011;20026;50.058;18.428;2023-04-25T07:02:00;7.70;;;4.95;;
33690;SDS011;20026;50.058;18.428;2023-04-25T07:04:26;10.65;;;7.35;;
33690;SDS011;20026;50.058;18.428;2023-04-25T07:06:53;8.50;;;6.40;;
33690;SDS011;20026;50.058;18.428;2023-04-25T07:09:20;7.68;;;5.70;;
33690;SDS011;20026;50.058;18.428;2023-04-25T07:11:46;7.20;;;5.15;;
33690;SDS011;20026;50.058;18.428;2023-04-25T07:14:13;9.77;;;5.55;;
33690;SDS011;20026;50.058;18.428;2023-04-25T07:16:40;8.75;;;5.25;;
33690;SDS011;20026;50.058;18.428;2023-04-25T07:19:07;9.57;;;5.80;;
33690;SDS011;20026;50.058;18.428;2023-04-25T07:21:33;9.68;;;5.68;;
33690;SDS011;20026;50.058;18.428;2023-04-25T07:24:01;6.95;;;4.72;;
33690;SDS011;20026;50.058;18.428;2023-04-25T07:26:27;10.27;;;4.70;;
33690;SDS011;20026;50.058;18.428;2023-04-25T07:28:53;5.95;;;4.57;;
33690;SDS011;20026;50.058;18.428;2023-04-25T07:31:20;7.78;;;4.57;;
33690;SDS011;20026;50.058;18.428;2023-04-25T07:33:47;6.13;;;4.40;;
33690;SDS011;20026;50.058;18.428;2023-04-25T07:36:13;7.20;;;4.65;;
33690;SDS011;20026;50.058;18.428;2023-04-25T07:38:40;5.30;;;3.75;;
33690;SDS011;20026;50.058;18.428;2023-04-25T07:41:07;5.85;;;4.45;;
33690;SDS011;20026;50.058;18.428;2023-04-25T07:43:33;4.57;;;3.53;;
33690;SDS011;20026;50.058;18.428;2023-04-25T07:45:59;7.00;;;4.47;;
33690;SDS011;20026;50.058;18.428;2023-04-25T07:48:25;10.35;;;5.78;;
33690;SDS011;20026;50.058;18.428;2023-04-25T07:50:52;7.20;;;4.80;;
33690;SDS011;20026;50.058;18.428;2023-04-25T07:53:18;6.40;;;3.55;;
33690;SDS011;20026;50.058;18.428;2023-04-25T07:55:49;4.03;;;3.40;;
33690;SDS011;20026;50.058;18.428;2023-04-25T07:58:16;7.00;;;4.32;;
33690;SDS011;20026;50.058;18.428;2023-04-25T08:00:46;7.75;;;5.55;;
33690;SDS011;20026;50.058;18.428;2023-04-25T08:03:12;6.57;;;3.72;;
33690;SDS011;20026;50.058;18.428;2023-04-25T08:05:39;5.57;;;3.65;;
33690;SDS011;20026;50.058;18.428;2023-04-25T08:08:05;10.05;;;5.22;;
33690;SDS011;20026;50.058;18.428;2023-04-25T08:10:32;6.82;;;3.15;;
33690;SDS011;20026;50.058;18.428;2023-04-25T08:12:59;6.50;;;4.07;;
33690;SDS011;20026;50.058;18.428;2023-04-25T08:15:25;7.85;;;3.50;;
33690;SDS011;20026;50.058;18.428;2023-04-25T08:17:51;5.35;;;3.80;;
33690;SDS011;20026;50.058;18.428;2023-04-25T08:20:18;7.07;;;4.65;;
33690;SDS011;20026;50.058;18.428;2023-04-25T08:22:44;7.85;;;4.40;;
33690;SDS011;20026;50.058;18.428;2023-04-25T08:25:11;5.53;;;3.10;;
33690;SDS011;20026;50.058;18.428;2023-04-25T08:27:37;6.88;;;4.53;;
33690;SDS011;20026;50.058;18.428;2023-04-25T08:30:05;6.40;;;4.90;;
33690;SDS011;20026;50.058;18.428;2023-04-25T08:32:33;8.65;;;5.32;;
33690;SDS011;20026;50.058;18.428;2023-04-25T08:35:02;4.30;;;3.90;;
33690;SDS011;20026;50.058;18.428;2023-04-25T08:37:29;4.32;;;2.58;;
33690;SDS011;20026;50.058;18.428;2023-04-25T08:39:55;3.75;;;2.60;;
33690;SDS011;20026;50.058;18.428;2023-04-25T08:42:22;6.30;;;3.33;;
33690;SDS011;20026;50.058;18.428;2023-04-25T08:44:49;4.95;;;2.80;;
33690;SDS011;20026;50.058;18.428;2023-04-25T08:47:17;4.53;;;3.17;;
33690;SDS011;20026;50.058;18.428;2023-04-25T08:49:46;4.47;;;3.10;;
33690;SDS011;20026;50.058;18.428;2023-04-25T08:52:13;5.13;;;3.13;;
33690;SDS011;20026;50.058;18.428;2023-04-25T08:54:43;7.07;;;2.92;;
33690;SDS011;20026;50.058;18.428;2023-04-25T08:57:12;3.97;;;3.13;;
33690;SDS011;20026;50.058;18.428;2023-04-25T08:59:39;5.03;;;3.38;;
33690;SDS011;20026;50.058;18.428;2023-04-25T09:02:10;4.75;;;3.35;;
33690;SDS011;20026;50.058;18.428;2023-04-25T09:04:39;4.40;;;3.00;;
33690;SDS011;20026;50.058;18.428;2023-04-25T09:07:06;7.43;;;2.90;;
33690;SDS011;20026;50.058;18.428;2023-04-25T09:09:32;10.55;;;4.70;;
33690;SDS011;20026;50.058;18.428;2023-04-25T09:11:58;3.28;;;2.85;;
33690;SDS011;20026;50.058;18.428;2023-04-25T09:14:26;6.18;;;2.85;;
33690;SDS011;20026;50.058;18.428;2023-04-25T09:19:22;4.90;;;3.97;;
33690;SDS011;20026;50.058;18.428;2023-04-25T09:21:49;11.25;;;4.30;;
33690;SDS011;20026;50.058;18.428;2023-04-25T09:24:15;4.20;;;3.55;;
33690;SDS011;20026;50.058;18.428;2023-04-25T09:26:42;4.57;;;3.63;;
33690;SDS011;20026;50.058;18.428;2023-04-25T09:29:08;5.30;;;3.90;;
33690;SDS011;20026;50.058;18.428;2023-04-25T09:31:35;5.70;;;3.33;;
33690;SDS011;20026;50.058;18.428;2023-04-25T09:34:01;5.65;;;3.92;;
33690;SDS011;20026;50.058;18.428;2023-04-25T09:36:29;4.82;;;3.40;;
33690;SDS011;20026;50.058;18.428;2023-04-25T09:41:24;6.50;;;3.47;;
33690;SDS011;20026;50.058;18.428;2023-04-25T09:43:50;5.32;;;3.55;;
33690;SDS011;20026;50.058;18.428;2023-04-25T09:46:16;4.53;;;3.13;;
33690;SDS011;20026;50.058;18.428;2023-04-25T09:48:49;7.82;;;3.80;;
33690;SDS011;20026;50.058;18.428;2023-04-25T09:51:19;6.55;;;3.80;;
33690;SDS011;20026;50.058;18.428;2023-04-25T09:53:46;7.00;;;4.00;;
33690;SDS011;20026;50.058;18.428;2023-04-25T09:56:15;6.80;;;3.92;;
33690;SDS011;20026;50.058;18.428;2023-04-25T09:58:42;6.82;;;4.30;;
33690;SDS011;20026;50.058;18.428;2023-04-25T10:01:09;4.20;;;3.10;;
33690;SDS011;20026;50.058;18.428;2023-04-25T10:03:38;6.45;;;4.35;;
33690;SDS011;20026;50.058;18.428;2023-04-25T10:06:09;6.50;;;5.15;;
33690;SDS011;20026;50.058;18.428;2023-04-25T10:08:38;11.20;;;4.72;;
33690;SDS011;20026;50.058;18.428;2023-04-25T10:11:04;6.20;;;3.90;;
33690;SDS011;20026;50.058;18.428;2023-04-25T10:13:32;5.32;;;3.67;;
33690;SDS011;20026;50.058;18.428;2023-04-25T10:15:59;6.28;;;3.40;;
33690;SDS011;20026;50.058;18.428;2023-04-25T10:18:26;6.60;;;3.20;;
33690;SDS011;20026;50.058;18.428;2023-04-25T10:21:03;4.57;;;3.70;;
33690;SDS011;20026;50.058;18.428;2023-04-25T10:23:31;5.55;;;3.70;;
33690;SDS011;20026;50.058;18.428;2023-04-25T10:25:59;6.35;;;3.95;;
33690;SDS011;20026;50.058;18.428;2023-04-25T10:28:25;4.95;;;3.63;;
33690;SDS011;20026;50.058;18.428;2023-04-25T10:31:03;5.30;;;3.28;;
33690;SDS011;20026;50.058;18.428;2023-04-25T10:33:37;5.38;;;3.22;;
33690;SDS011;20026;50.058;18.428;2023-04-25T10:36:13;4.30;;;2.95;;
33690;SDS011;20026;50.058;18.428;2023-04-25T10:38:41;6.55;;;3.28;;
33690;SDS011;20026;50.058;18.428;2023-04-25T10:41:08;4.43;;;2.90;;
33690;SDS011;20026;50.058;18.428;2023-04-25T10:48:57;7.70;;;4.20;;
33690;SDS011;20026;50.058;18.428;2023-04-25T10:56:30;5.70;;;3.78;;
33690;SDS011;20026;50.058;18.428;2023-04-25T11:01:42;11.25;;;4.70;;
33690;SDS011;20026;50.058;18.428;2023-04-25T11:04:25;6.13;;;3.78;;
33690;SDS011;20026;50.058;18.428;2023-04-25T11:09:26;8.15;;;5.18;;
33690;SDS011;20026;50.058;18.428;2023-04-25T11:11:56;8.65;;;5.53;;
33690;SDS011;20026;50.058;18.428;2023-04-25T11:14:23;7.32;;;3.53;;
33690;SDS011;20026;50.058;18.428;2023-04-25T11:16:53;8.07;;;4.55;;
33690;SDS011;20026;50.058;18.428;2023-04-25T11:19:22;7.07;;;5.05;;
33690;SDS011;20026;50.058;18.428;2023-04-25T11:21:49;8.48;;;4.82;;
33690;SDS011;20026;50.058;18.428;2023-04-25T11:24:18;10.75;;;6.93;;
33690;SDS011;20026;50.058;18.428;2023-04-25T11:26:46;8.45;;;4.97;;
33690;SDS011;20026;50.058;18.428;2023-04-25T11:29:21;11.75;;;5.63;;
33690;SDS011;20026;50.058;18.428;2023-04-25T11:31:52;6.68;;;3.60;;
33690;SDS011;20026;50.058;18.428;2023-04-25T11:34:19;8.98;;;4.22;;
33690;SDS011;20026;50.058;18.428;2023-04-25T11:36:45;7.43;;;3.20;;
33690;SDS011;20026;50.058;18.428;2023-04-25T11:39:12;6.63;;;2.80;;
33690;SDS011;20026;50.058;18.428;2023-04-25T11:41:40;8.77;;;4.95;;
33690;SDS011;20026;50.058;18.428;2023-04-25T11:44:06;6.18;;;3.50;;
33690;SDS011;20026;50.058;18.428;2023-04-25T11:46:35;6.30;;;3.13;;
33690;SDS011;20026;50.058;18.428;2023-04-25T11:49:02;11.48;;;4.53;;
33690;SDS011;20026;50.058;18.428;2023-04-25T11:51:30;12.52;;;5.57;;
33690;SDS011;20026;50.058;18.428;2023-04-25T11:53:56;5.60;;;3.58;;
33690;SDS011;20026;50.058;18.428;2023-04-25T11:56:23;7.43;;;3.13;;
33690;SDS011;20026;50.058;18.428;2023-04-25T11:59:02;33.75;;;22.20;;
33690;SDS011;20026;50.058;18.428;2023-04-25T12:01:30;9.48;;;4.60;;
33690;SDS011;20026;50.058;18.428;2023-04-25T12:03:57;8.45;;;4.05;;
33690;SDS011;20026;50.058;18.428;2023-04-25T12:06:30;7.93;;;3.17;;
33690;SDS011;20026;50.058;18.428;2023-04-25T12:09:03;5.60;;;3.30;;
33690;SDS011;20026;50.058;18.428;2023-04-25T12:11:30;7.50;;;3.70;;
33690;SDS011;20026;50.058;18.428;2023-04-25T12:14:01;4.85;;;2.83;;
33690;SDS011;20026;50.058;18.428;2023-04-25T12:16:28;4.53;;;2.72;;
33690;SDS011;20026;50.058;18.428;2023-04-25T12:18:55;5.32;;;3.20;;
33690;SDS011;20026;50.058;18.428;2023-04-25T12:21:23;5.28;;;3.30;;
33690;SDS011;20026;50.058;18.428;2023-04-25T12:23:50;6.32;;;3.00;;
33690;SDS011;20026;50.058;18.428;2023-04-25T12:26:19;5.10;;;2.70;;
33690;SDS011;20026;50.058;18.428;2023-04-25T12:28:46;3.78;;;2.60;;
33690;SDS011;20026;50.058;18.428;2023-04-25T12:31:12;5.60;;;2.80;;
33690;SDS011;20026;50.058;18.428;2023-04-25T12:33:40;6.07;;;2.80;;
33690;SDS011;20026;50.058;18.428;2023-04-25T12:36:09;4.13;;;2.78;;
33690;SDS011;20026;50.058;18.428;2023-04-25T12:38:40;8.13;;;3.50;;
33690;SDS011;20026;50.058;18.428;2023-04-25T12:41:07;4.80;;;2.88;;
33690;SDS011;20026;50.058;18.428;2023-04-25T12:43:34;5.43;;;3.33;;
33690;SDS011;20026;50.058;18.428;2023-04-25T12:46:00;7.50;;;3.17;;
33690;SDS011;20026;50.058;18.428;2023-04-25T12:48:27;4.30;;;2.38;;
33690;SDS011;20026;50.058;18.428;2023-04-25T12:50:54;3.92;;;2.33;;
33690;SDS011;20026;50.058;18.428;2023-04-25T12:53:21;5.65;;;2.45;;
33690;SDS011;20026;50.058;18.428;2023-04-25T12:58:17;3.45;;;2.70;;
33690;SDS011;20026;50.058;18.428;2023-04-25T13:00:44;5.95;;;3.50;;
33690;SDS011;20026;50.058;18.428;2023-04-25T13:03:11;5.75;;;2.97;;
33690;SDS011;20026;50.058;18.428;2023-04-25T13:05:38;6.90;;;3.60;;
33690;SDS011;20026;50.058;18.428;2023-04-25T13:08:07;5.35;;;3.28;;
33690;SDS011;20026;50.058;18.428;2023-04-25T13:10:33;4.75;;;3.47;;
33690;SDS011;20026;50.058;18.428;2023-04-25T13:13:01;12.23;;;3.35;;
33690;SDS011;20026;50.058;18.428;2023-04-25T13:15:27;5.22;;;2.85;;
33690;SDS011;20026;50.058;18.428;2023-04-25T13:17:54;5.03;;;3.10;;
33690;SDS011;20026;50.058;18.428;2023-04-25T13:20:21;9.30;;;4.40;;
33690;SDS011;20026;50.058;18.428;2023-04-25T13:22:47;10.48;;;5.72;;
33690;SDS011;20026;50.058;18.428;2023-04-25T13:25:14;6.80;;;4.10;;
33690;SDS011;20026;50.058;18.428;2023-04-25T13:27:41;7.93;;;3.50;;
33690;SDS011;20026;50.058;18.428;2023-04-25T13:30:09;5.13;;;3.85;;
33690;SDS011;20026;50.058;18.428;2023-04-25T13:32:36;4.55;;;3.28;;
33690;SDS011;20026;50.058;18.428;2023-04-25T13:35:03;5.68;;;3.00;;
33690;SDS011;20026;50.058;18.428;2023-04-25T13:37:30;7.25;;;3.50;;
33690;SDS011;20026;50.058;18.428;2023-04-25T13:40:00;6.47;;;4.40;;
33690;SDS011;20026;50.058;18.428;2023-04-25T13:42:29;6.35;;;4.95;;
33690;SDS011;20026;50.058;18.428;2023-04-25T13:44:55;16.10;;;10.75;;
33690;SDS011;20026;50.058;18.428;2023-04-25T13:47:22;8.82;;;4.80;;
33690;SDS011;20026;50.058;18.428;2023-04-25T13:49:49;8.25;;;5.13;;
33690;SDS011;20026;50.058;18.428;2023-04-25T13:52:15;7.07;;;5.35;;
33690;SDS011;20026;50.058;18.428;2023-04-25T13:54:42;7.15;;;4.35;;
33690;SDS011;20026;50.058;18.428;2023-04-25T13:57:09;8.02;;;4.10;;
33690;SDS011;20026;50.058;18.428;2023-04-25T13:59:36;10.25;;;6.68;;
33690;SDS011;20026;50.058;18.428;2023-04-25T14:02:03;7.10;;;4.72;;
33690;SDS011;20026;50.058;18.428;2023-04-25T14:04:29;8.77;;;6.03;;
33690;SDS011;20026;50.058;18.428;2023-04-25T14:06:56;9.95;;;5.97;;
33690;SDS011;20026;50.058;18.428;2023-04-25T14:09:22;10.23;;;5.85;;
33690;SDS011;20026;50.058;18.428;2023-04-25T14:11:51;7.65;;;5.38;;
33690;SDS011;20026;50.058;18.428;2023-04-25T14:14:19;19.42;;;8.57;;
33690;SDS011;20026;50.058;18.428;2023-04-25T14:16:49;14.27;;;7.53;;
33690;SDS011;20026;50.058;18.428;2023-04-25T14:19:19;16.83;;;8.20;;
33690;SDS011;20026;50.058;18.428;2023-04-25T14:21:46;17.77;;;9.82;;
33690;SDS011;20026;50.058;18.428;2023-04-25T14:24:13;20.48;;;11.52;;
33690;SDS011;20026;50.058;18.428;2023-04-25T14:26:39;13.27;;;8.38;;
33690;SDS011;20026;50.058;18.428;2023-04-25T14:29:07;14.57;;;6.95;;
33690;SDS011;20026;50.058;18.428;2023-04-25T14:31:37;6.90;;;4.20;;
33690;SDS011;20026;50.058;18.428;2023-04-25T14:34:06;18.15;;;11.45;;
33690;SDS011;20026;50.058;18.428;2023-04-25T14:36:33;6.28;;;4.15;;
33690;SDS011;20026;50.058;18.428;2023-04-25T14:38:59;7.75;;;4.28;;
33690;SDS011;20026;50.058;18.428;2023-04-25T14:41:27;13.88;;;6.15;;
33690;SDS011;20026;50.058;18.428;2023-04-25T14:43:54;20.50;;;8.57;;
33690;SDS011;20026;50.058;18.428;2023-04-25T14:46:22;18.92;;;8.20;;
33690;SDS011;20026;50.058;18.428;2023-04-25T14:48:48;14.63;;;8.80;;
33690;SDS011;20026;50.058;18.428;2023-04-25T14:51:15;10.20;;;6.47;;
33690;SDS011;20026;50.058;18.428;2023-04-25T14:53:42;10.93;;;9.35;;